sensor_id;sensor_type;location;lat;lon;timestamp;temperature;humidity
360;DHT22;168;48.872;9.226;2023-06-14T00:00:10;17.20;65.60
360;DHT22;168;48.872;9.226;2023-06-14T00:02:39;17.20;65.20
360;DHT22;168;48.872;9.226;2023-06-14T00:05:07;17.10;65.70
360;DHT22;168;48.872;9.226;2023-06-14T00:07:40;17.00;66.20
360;DHT22;168;48.872;9.226;2023-06-14T00:10:11;17.00;66.30
360;DHT22;168;48.872;9.226;2023-06-14T00:12:39;16.90;66.20
360;DHT22;168;48.872;9.226;2023-06-14T00:15:07;16.90;66.40
360;DHT22;168;48.872;9.226;2023-06-14T00:17:35;16.80;66.50
360;DHT22;168;48.872;9.226;2023-06-14T00:20:05;16.70;66.70
360;DHT22;168;48.872;9.226;2023-06-14T00:22:34;16.70;66.70
360;DHT22;168;48.872;9.226;2023-06-14T00:25:03;16.70;66.60
360;DHT22;168;48.872;9.226;2023-06-14T00:27:32;16.70;67.10
360;DHT22;168;48.872;9.226;2023-06-14T00:30:00;16.60;67.20
360;DHT22;168;48.872;9.226;2023-06-14T00:32:27;16.60;67.60
360;DHT22;168;48.872;9.226;2023-06-14T00:34:55;16.50;67.90
360;DHT22;168;48.872;9.226;2023-06-14T00:37:22;16.50;68.40
360;DHT22;168;48.872;9.226;2023-06-14T00:39:50;16.50;68.50
360;DHT22;168;48.872;9.226;2023-06-14T00:42:27;16.40;68.40
360;DHT22;168;48.872;9.226;2023-06-14T00:44:57;16.40;69.10
360;DHT22;168;48.872;9.226;2023-06-14T00:47:25;16.40;69.10
360;DHT22;168;48.872;9.226;2023-06-14T00:49:53;16.50;69.70
360;DHT22;168;48.872;9.226;2023-06-14T00:52:22;16.60;69.00
360;DHT22;168;48.872;9.226;2023-06-14T00:54:50;16.60;68.30
360;DHT22;168;48.872;9.226;2023-06-14T00:57:18;16.50;67.70
360;DHT22;168;48.872;9.226;2023-06-14T00:59:48;16.30;68.40
360;DHT22;168;48.872;9.226;2023-06-14T01:02:17;16.10;68.20
360;DHT22;168;48.872;9.226;2023-06-14T01:04:47;16.10;69.90
360;DHT22;168;48.872;9.226;2023-06-14T01:07:22;16.00;69.60
360;DHT22;168;48.872;9.226;2023-06-14T01:10:03;16.00;70.50
360;DHT22;168;48.872;9.226;2023-06-14T01:12:40;16.00;70.50
360;DHT22;168;48.872;9.226;2023-06-14T01:15:10;16.00;70.00
360;DHT22;168;48.872;9.226;2023-06-14T01:17:41;16.00;70.60
360;DHT22;168;48.872;9.226;2023-06-14T01:20:12;16.10;69.50
360;DHT22;168;48.872;9.226;2023-06-14T01:22:50;16.20;69.60
360;DHT22;168;48.872;9.226;2023-06-14T01:25:19;16.10;69.30
360;DHT22;168;48.872;9.226;2023-06-14T01:27:49;16.10;69.20
360;DHT22;168;48.872;9.226;2023-06-14T01:30:18;16.10;67.90
360;DHT22;168;48.872;9.226;2023-06-14T01:32:47;16.20;67.70
360;DHT22;168;48.872;9.226;2023-06-14T01:35:17;16.10;67.50
360;DHT22;168;48.872;9.226;2023-06-14T01:37:48;16.00;68.30
360;DHT22;168;48.872;9.226;2023-06-14T01:40:17;15.80;68.80
360;DHT22;168;48.872;9.226;2023-06-14T01:42:46;15.80;69.00
360;DHT22;168;48.872;9.226;2023-06-14T01:45:15;15.70;69.70
360;DHT22;168;48.872;9.226;2023-06-14T01:47:45;15.80;69.10
360;DHT22;168;48.872;9.226;2023-06-14T01:50:13;15.80;69.50
360;DHT22;168;48.872;9.226;2023-06-14T01:52:41;15.80;69.90
360;DHT22;168;48.872;9.226;2023-06-14T01:55:10;15.80;69.70
360;DHT22;168;48.872;9.226;2023-06-14T01:57:37;15.80;70.40
360;DHT22;168;48.872;9.226;2023-06-14T02:00:06;15.80;70.40
360;DHT22;168;48.872;9.226;2023-06-14T02:02:37;15.70;70.70
360;DHT22;168;48.872;9.226;2023-06-14T02:05:09;15.70;71.30
360;DHT22;168;48.872;9.226;2023-06-14T02:07:39;15.60;71.00
360;DHT22;168;48.872;9.226;2023-06-14T02:10:06;15.60;71.10
360;DHT22;168;48.872;9.226;2023-06-14T02:12:35;15.70;71.00
360;DHT22;168;48.872;9.226;2023-06-14T02:15:03;15.60;70.80
360;DHT22;168;48.872;9.226;2023-06-14T02:17:32;15.60;71.20
360;DHT22;168;48.872;9.226;2023-06-14T02:19:59;15.50;71.30
360;DHT22;168;48.872;9.226;2023-06-14T02:22:26;15.50;71.50
360;DHT22;168;48.872;9.226;2023-06-14T02:24:54;15.60;72.10
360;DHT22;168;48.872;9.226;2023-06-14T02:27:21;15.40;72.00
360;DHT22;168;48.872;9.226;2023-06-14T02:29:50;15.40;73.60
360;DHT22;168;48.872;9.226;2023-06-14T02:32:17;15.30;73.90
360;DHT22;168;48.872;9.226;2023-06-14T02:34:44;15.30;74.20
360;DHT22;168;48.872;9.226;2023-06-14T02:37:15;15.30;73.40
360;DHT22;168;48.872;9.226;2023-06-14T02:39:43;15.30;74.40
360;DHT22;168;48.872;9.226;2023-06-14T02:42:10;15.20;74.80
360;DHT22;168;48.872;9.226;2023-06-14T02:44:38;15.10;75.30
360;DHT22;168;48.872;9.226;2023-06-14T02:47:07;15.00;76.10
360;DHT22;168;48.872;9.226;2023-06-14T02:49:34;14.90;76.00
360;DHT22;168;48.872;9.226;2023-06-14T02:52:03;14.90;75.90
360;DHT22;168;48.872;9.226;2023-06-14T02:54:31;15.10;74.50
360;DHT22;168;48.872;9.226;2023-06-14T02:56:58;15.20;73.20
360;DHT22;168;48.872;9.226;2023-06-14T02:59:25;15.10;72.70
360;DHT22;168;48.872;9.226;2023-06-14T03:01:53;15.10;72.30
360;DHT22;168;48.872;9.226;2023-06-14T03:04:21;15.10;71.80
360;DHT22;168;48.872;9.226;2023-06-14T03:06:51;15.00;72.10
360;DHT22;168;48.872;9.226;2023-06-14T03:09:19;15.10;72.10
360;DHT22;168;48.872;9.226;2023-06-14T03:11:47;15.00;72.90
360;DHT22;168;48.872;9.226;2023-06-14T03:14:14;14.90;74.00
360;DHT22;168;48.872;9.226;2023-06-14T03:16:44;14.80;74.60
360;DHT22;168;48.872;9.226;2023-06-14T03:19:13;14.80;74.20
360;DHT22;168;48.872;9.226;2023-06-14T03:21:44;14.80;75.00
360;DHT22;168;48.872;9.226;2023-06-14T03:24:12;14.80;75.60
360;DHT22;168;48.872;9.226;2023-06-14T03:26:42;14.80;76.00
360;DHT22;168;48.872;9.226;2023-06-14T03:29:10;14.80;76.20
360;DHT22;168;48.872;9.226;2023-06-14T03:31:56;14.80;76.50
360;DHT22;168;48.872;9.226;2023-06-14T03:34:26;14.90;76.70
360;DHT22;168;48.872;9.226;2023-06-14T03:36:57;14.80;76.90
360;DHT22;168;48.872;9.226;2023-06-14T03:39:25;14.80;77.20
360;DHT22;168;48.872;9.226;2023-06-14T03:41:54;14.80;77.70
360;DHT22;168;48.872;9.226;2023-06-14T03:44:22;14.80;77.50
360;DHT22;168;48.872;9.226;2023-06-14T03:46:50;14.80;77.50
360;DHT22;168;48.872;9.226;2023-06-14T03:49:18;14.80;77.20
360;DHT22;168;48.872;9.226;2023-06-14T03:51:46;14.80;77.40
360;DHT22;168;48.872;9.226;2023-06-14T03:54:18;14.80;77.50
360;DHT22;168;48.872;9.226;2023-06-14T03:56:47;14.70;77.60
360;DHT22;168;48.872;9.226;2023-06-14T03:59:14;14.60;77.20
360;DHT22;168;48.872;9.226;2023-06-14T04:01:42;14.70;77.50
360;DHT22;168;48.872;9.226;2023-06-14T04:04:11;14.70;77.50
360;DHT22;168;48.872;9.226;2023-06-14T04:06:38;14.80;77.80
360;DHT22;168;48.872;9.226;2023-06-14T04:09:06;14.70;78.30
360;DHT22;168;48.872;9.226;2023-06-14T04:11:35;14.70;79.00
360;DHT22;168;48.872;9.226;2023-06-14T04:14:02;14.80;79.00
360;DHT22;168;48.872;9.226;2023-06-14T04:16:29;14.80;78.60
360;DHT22;168;48.872;9.226;2023-06-14T04:18:57;14.80;78.90
360;DHT22;168;48.872;9.226;2023-06-14T04:21:24;14.80;78.80
360;DHT22;168;48.872;9.226;2023-06-14T04:23:52;14.80;78.90
360;DHT22;168;48.872;9.226;2023-06-14T04:26:21;14.80;79.40
360;DHT22;168;48.872;9.226;2023-06-14T04:28:51;14.80;79.30
360;DHT22;168;48.872;9.226;2023-06-14T04:31:18;14.90;79.00
360;DHT22;168;48.872;9.226;2023-06-14T04:33:47;15.00;78.40
360;DHT22;168;48.872;9.226;2023-06-14T04:36:16;15.10;77.50
360;DHT22;168;48.872;9.226;2023-06-14T04:38:44;15.20;77.70
360;DHT22;168;48.872;9.226;2023-06-14T04:41:12;15.40;76.70
360;DHT22;168;48.872;9.226;2023-06-14T04:43:41;15.30;76.40
360;DHT22;168;48.872;9.226;2023-06-14T04:46:10;15.20;76.50
360;DHT22;168;48.872;9.226;2023-06-14T04:48:40;15.20;76.30
360;DHT22;168;48.872;9.226;2023-06-14T04:51:08;15.10;76.10
360;DHT22;168;48.872;9.226;2023-06-14T04:53:45;15.10;75.20
360;DHT22;168;48.872;9.226;2023-06-14T04:56:12;15.20;75.70
360;DHT22;168;48.872;9.226;2023-06-14T04:58:40;15.30;76.60
360;DHT22;168;48.872;9.226;2023-06-14T05:01:09;15.50;76.70
360;DHT22;168;48.872;9.226;2023-06-14T05:03:37;15.70;77.10
360;DHT22;168;48.872;9.226;2023-06-14T05:06:04;15.90;76.40
360;DHT22;168;48.872;9.226;2023-06-14T05:08:32;15.90;76.80
360;DHT22;168;48.872;9.226;2023-06-14T05:10:59;15.80;77.30
360;DHT22;168;48.872;9.226;2023-06-14T05:13:27;16.00;75.50
360;DHT22;168;48.872;9.226;2023-06-14T05:15:55;16.00;76.70
360;DHT22;168;48.872;9.226;2023-06-14T05:18:24;16.10;76.60
360;DHT22;168;48.872;9.226;2023-06-14T05:20:52;16.10;75.90
360;DHT22;168;48.872;9.226;2023-06-14T05:23:20;16.10;75.80
360;DHT22;168;48.872;9.226;2023-06-14T05:25:48;16.30;74.50
360;DHT22;168;48.872;9.226;2023-06-14T05:28:15;16.50;74.10
360;DHT22;168;48.872;9.226;2023-06-14T05:30:43;16.40;74.20
360;DHT22;168;48.872;9.226;2023-06-14T05:33:11;16.40;75.30
360;DHT22;168;48.872;9.226;2023-06-14T05:35:40;16.60;75.10
360;DHT22;168;48.872;9.226;2023-06-14T05:38:08;16.60;74.60
360;DHT22;168;48.872;9.226;2023-06-14T05:40:37;16.70;73.80
360;DHT22;168;48.872;9.226;2023-06-14T05:43:05;16.80;74.60
360;DHT22;168;48.872;9.226;2023-06-14T05:45:33;16.80;74.90
360;DHT22;168;48.872;9.226;2023-06-14T05:48:01;16.80;74.70
360;DHT22;168;48.872;9.226;2023-06-14T05:50:30;16.90;74.60
360;DHT22;168;48.872;9.226;2023-06-14T05:52:59;17.10;73.50
360;DHT22;168;48.872;9.226;2023-06-14T05:55:27;17.10;73.90
360;DHT22;168;48.872;9.226;2023-06-14T05:57:56;17.20;73.80
360;DHT22;168;48.872;9.226;2023-06-14T06:00:25;17.20;73.40
360;DHT22;168;48.872;9.226;2023-06-14T06:02:54;17.40;71.60
360;DHT22;168;48.872;9.226;2023-06-14T06:05:24;17.50;71.80
360;DHT22;168;48.872;9.226;2023-06-14T06:07:52;17.40;72.10
360;DHT22;168;48.872;9.226;2023-06-14T06:10:23;17.60;70.60
360;DHT22;168;48.872;9.226;2023-06-14T06:12:51;17.50;71.30
360;DHT22;168;48.872;9.226;2023-06-14T06:15:23;17.70;70.00
360;DHT22;168;48.872;9.226;2023-06-14T06:17:52;17.80;69.50
360;DHT22;168;48.872;9.226;2023-06-14T06:20:20;17.80;70.70
360;DHT22;168;48.872;9.226;2023-06-14T06:22:53;18.00;69.80
360;DHT22;168;48.872;9.226;2023-06-14T06:25:24;18.00;70.90
360;DHT22;168;48.872;9.226;2023-06-14T06:27:58;18.00;71.30
360;DHT22;168;48.872;9.226;2023-06-14T06:30:26;18.10;71.70
360;DHT22;168;48.872;9.226;2023-06-14T06:32:58;18.20;69.50
360;DHT22;168;48.872;9.226;2023-06-14T06:35:27;18.40;69.00
360;DHT22;168;48.872;9.226;2023-06-14T06:37:56;18.60;68.50
360;DHT22;168;48.872;9.226;2023-06-14T06:40:26;18.50;68.70
360;DHT22;168;48.872;9.226;2023-06-14T06:42:58;18.60;68.70
360;DHT22;168;48.872;9.226;2023-06-14T06:45:26;18.70;68.90
360;DHT22;168;48.872;9.226;2023-06-14T06:47:58;18.80;67.10
360;DHT22;168;48.872;9.226;2023-06-14T06:50:26;18.80;67.40
360;DHT22;168;48.872;9.226;2023-06-14T06:52:59;18.80;67.70
360;DHT22;168;48.872;9.226;2023-06-14T06:55:28;19.00;67.00
360;DHT22;168;48.872;9.226;2023-06-14T06:57:56;19.00;67.40
360;DHT22;168;48.872;9.226;2023-06-14T07:00:23;19.10;68.10
360;DHT22;168;48.872;9.226;2023-06-14T07:02:52;19.20;68.30
360;DHT22;168;48.872;9.226;2023-06-14T07:05:21;19.30;67.50
360;DHT22;168;48.872;9.226;2023-06-14T07:07:49;19.30;67.90
360;DHT22;168;48.872;9.226;2023-06-14T07:10:18;19.40;67.80
360;DHT22;168;48.872;9.226;2023-06-14T07:12:48;19.50;67.70
360;DHT22;168;48.872;9.226;2023-06-14T07:15:16;19.40;68.00
360;DHT22;168;48.872;9.226;2023-06-14T07:17:45;19.30;68.10
360;DHT22;168;48.872;9.226;2023-06-14T07:20:13;19.30;67.40
360;DHT22;168;48.872;9.226;2023-06-14T07:22:42;19.30;67.80
360;DHT22;168;48.872;9.226;2023-06-14T07:25:12;19.40;68.20
360;DHT22;168;48.872;9.226;2023-06-14T07:27:41;19.60;67.50
360;DHT22;168;48.872;9.226;2023-06-14T07:30:13;19.50;67.60
360;DHT22;168;48.872;9.226;2023-06-14T07:32:43;19.70;66.90
360;DHT22;168;48.872;9.226;2023-06-14T07:35:10;19.80;66.80
360;DHT22;168;48.872;9.226;2023-06-14T07:37:38;19.80;67.10
360;DHT22;168;48.872;9.226;2023-06-14T07:40:08;20.00;66.10
360;DHT22;168;48.872;9.226;2023-06-14T07:42:39;20.00;65.50
360;DHT22;168;48.872;9.226;2023-06-14T07:45:08;20.20;66.10
360;DHT22;168;48.872;9.226;2023-06-14T07:47:37;20.20;65.40
360;DHT22;168;48.872;9.226;2023-06-14T07:50:05;20.20;65.70
360;DHT22;168;48.872;9.226;2023-06-14T07:52:33;20.40;64.20
360;DHT22;168;48.872;9.226;2023-06-14T07:55:00;20.40;64.50
360;DHT22;168;48.872;9.226;2023-06-14T07:57:28;20.40;64.10
360;DHT22;168;48.872;9.226;2023-06-14T07:59:55;20.50;64.30
360;DHT22;168;48.872;9.226;2023-06-14T08:02:23;20.50;63.90
360;DHT22;168;48.872;9.226;2023-06-14T08:04:52;20.70;63.60
360;DHT22;168;48.872;9.226;2023-06-14T08:07:21;20.70;63.20
360;DHT22;168;48.872;9.226;2023-06-14T08:09:50;20.70;63.70
360;DHT22;168;48.872;9.226;2023-06-14T08:12:17;21.00;63.10
360;DHT22;168;48.872;9.226;2023-06-14T08:14:44;21.00;62.00
360;DHT22;168;48.872;9.226;2023-06-14T08:17:12;21.00;63.20
360;DHT22;168;48.872;9.226;2023-06-14T08:19:40;21.10;63.80
360;DHT22;168;48.872;9.226;2023-06-14T08:22:09;21.20;63.40
360;DHT22;168;48.872;9.226;2023-06-14T08:24:37;21.40;63.20
360;DHT22;168;48.872;9.226;2023-06-14T08:27:06;21.40;62.80
360;DHT22;168;48.872;9.226;2023-06-14T08:29:33;21.40;62.60
360;DHT22;168;48.872;9.226;2023-06-14T08:32:01;21.50;62.70
360;DHT22;168;48.872;9.226;2023-06-14T08:34:28;21.50;63.10
360;DHT22;168;48.872;9.226;2023-06-14T08:36:55;21.60;62.60
360;DHT22;168;48.872;9.226;2023-06-14T08:39:24;21.80;61.90
360;DHT22;168;48.872;9.226;2023-06-14T08:41:52;21.80;61.70
360;DHT22;168;48.872;9.226;2023-06-14T08:44:20;21.90;61.60
360;DHT22;168;48.872;9.226;2023-06-14T08:46:47;22.00;63.00
360;DHT22;168;48.872;9.226;2023-06-14T08:49:16;22.10;61.20
360;DHT22;168;48.872;9.226;2023-06-14T08:51:44;22.10;61.20
360;DHT22;168;48.872;9.226;2023-06-14T08:54:14;22.10;62.40
360;DHT22;168;48.872;9.226;2023-06-14T08:56:44;22.30;61.60
360;DHT22;168;48.872;9.226;2023-06-14T08:59:14;22.30;60.90
360;DHT22;168;48.872;9.226;2023-06-14T09:01:44;22.40;61.40
360;DHT22;168;48.872;9.226;2023-06-14T09:04:14;22.60;61.10
360;DHT22;168;48.872;9.226;2023-06-14T09:06:41;22.60;60.70
360;DHT22;168;48.872;9.226;2023-06-14T09:09:11;22.50;61.20
360;DHT22;168;48.872;9.226;2023-06-14T09:11:43;22.60;60.80
360;DHT22;168;48.872;9.226;2023-06-14T09:14:11;22.50;61.50
360;DHT22;168;48.872;9.226;2023-06-14T09:16:39;22.50;61.50
360;DHT22;168;48.872;9.226;2023-06-14T09:19:08;22.50;61.70
360;DHT22;168;48.872;9.226;2023-06-14T09:21:40;22.50;60.20
360;DHT22;168;48.872;9.226;2023-06-14T09:24:14;22.90;60.90
360;DHT22;168;48.872;9.226;2023-06-14T09:26:47;22.90;60.50
360;DHT22;168;48.872;9.226;2023-06-14T09:29:16;22.90;61.10
360;DHT22;168;48.872;9.226;2023-06-14T09:31:46;22.90;60.10
360;DHT22;168;48.872;9.226;2023-06-14T09:34:16;23.00;60.00
360;DHT22;168;48.872;9.226;2023-06-14T09:36:44;23.10;60.10
360;DHT22;168;48.872;9.226;2023-06-14T09:39:17;23.10;59.70
360;DHT22;168;48.872;9.226;2023-06-14T09:41:46;23.50;58.40
360;DHT22;168;48.872;9.226;2023-06-14T09:44:13;23.70;57.80
360;DHT22;168;48.872;9.226;2023-06-14T09:46:40;23.60;58.50
360;DHT22;168;48.872;9.226;2023-06-14T09:49:08;23.80;56.40
360;DHT22;168;48.872;9.226;2023-06-14T09:51:42;23.70;57.40
360;DHT22;168;48.872;9.226;2023-06-14T09:54:15;23.70;57.10
360;DHT22;168;48.872;9.226;2023-06-14T09:56:46;23.70;55.50
360;DHT22;168;48.872;9.226;2023-06-14T09:59:19;23.60;55.90
360;DHT22;168;48.872;9.226;2023-06-14T10:01:48;23.80;56.80
360;DHT22;168;48.872;9.226;2023-06-14T10:04:19;23.90;56.10
360;DHT22;168;48.872;9.226;2023-06-14T10:06:50;24.10;55.90
360;DHT22;168;48.872;9.226;2023-06-14T10:09:18;24.40;53.10
360;DHT22;168;48.872;9.226;2023-06-14T10:11:49;24.80;52.60
360;DHT22;168;48.872;9.226;2023-06-14T10:14:17;25.10;49.10
360;DHT22;168;48.872;9.226;2023-06-14T10:16:54;25.40;50.10
360;DHT22;168;48.872;9.226;2023-06-14T10:19:27;25.60;49.80
360;DHT22;168;48.872;9.226;2023-06-14T10:22:02;25.80;50.30
360;DHT22;168;48.872;9.226;2023-06-14T10:24:35;25.90;49.40
360;DHT22;168;48.872;9.226;2023-06-14T10:27:07;26.00;49.80
360;DHT22;168;48.872;9.226;2023-06-14T10:30:02;26.00;49.40
360;DHT22;168;48.872;9.226;2023-06-14T10:32:31;25.60;48.00
360;DHT22;168;48.872;9.226;2023-06-14T10:35:00;25.40;48.00
360;DHT22;168;48.872;9.226;2023-06-14T10:37:28;25.30;47.90
360;DHT22;168;48.872;9.226;2023-06-14T10:39:56;25.30;47.20
360;DHT22;168;48.872;9.226;2023-06-14T10:42:32;25.40;48.80
360;DHT22;168;48.872;9.226;2023-06-14T10:45:00;25.40;48.40
360;DHT22;168;48.872;9.226;2023-06-14T10:47:29;25.40;49.90
360;DHT22;168;48.872;9.226;2023-06-14T10:50:02;25.60;50.10
360;DHT22;168;48.872;9.226;2023-06-14T10:52:33;25.90;47.60
360;DHT22;168;48.872;9.226;2023-06-14T10:57:44;26.20;47.30
360;DHT22;168;48.872;9.226;2023-06-14T11:00:14;26.40;46.80
360;DHT22;168;48.872;9.226;2023-06-14T11:03:15;26.60;47.00
360;DHT22;168;48.872;9.226;2023-06-14T11:05:52;26.80;46.00
360;DHT22;168;48.872;9.226;2023-06-14T11:11:32;26.80;44.10
360;DHT22;168;48.872;9.226;2023-06-14T11:14:02;26.60;44.00
360;DHT22;168;48.872;9.226;2023-06-14T11:16:29;26.60;45.50
360;DHT22;168;48.872;9.226;2023-06-14T11:19:00;26.70;45.30
360;DHT22;168;48.872;9.226;2023-06-14T11:21:29;26.90;45.60
360;DHT22;168;48.872;9.226;2023-06-14T11:23:57;26.60;44.90
360;DHT22;168;48.872;9.226;2023-06-14T11:26:25;26.00;45.70
360;DHT22;168;48.872;9.226;2023-06-14T11:28:58;25.50;46.80
360;DHT22;168;48.872;9.226;2023-06-14T11:31:28;25.30;47.90
360;DHT22;168;48.872;9.226;2023-06-14T11:33:58;25.30;47.70
360;DHT22;168;48.872;9.226;2023-06-14T11:36:27;25.20;47.80
360;DHT22;168;48.872;9.226;2023-06-14T11:38:58;24.90;48.20
360;DHT22;168;48.872;9.226;2023-06-14T11:41:33;24.80;48.40
360;DHT22;168;48.872;9.226;2023-06-14T11:44:01;24.90;48.90
360;DHT22;168;48.872;9.226;2023-06-14T11:46:30;25.10;47.20
360;DHT22;168;48.872;9.226;2023-06-14T11:48:58;25.30;46.70
360;DHT22;168;48.872;9.226;2023-06-14T11:51:29;25.60;47.00
360;DHT22;168;48.872;9.226;2023-06-14T11:53:57;25.60;46.80
360;DHT22;168;48.872;9.226;2023-06-14T11:56:25;25.50;47.00
360;DHT22;168;48.872;9.226;2023-06-14T11:58:53;25.60;47.60
360;DHT22;168;48.872;9.226;2023-06-14T12:01:22;25.50;47.20
360;DHT22;168;48.872;9.226;2023-06-14T12:03:53;25.40;47.20
360;DHT22;168;48.872;9.226;2023-06-14T12:06:28;25.50;48.20
360;DHT22;168;48.872;9.226;2023-06-14T12:08:59;25.50;47.60
360;DHT22;168;48.872;9.226;2023-06-14T12:11:32;25.40;48.00
360;DHT22;168;48.872;9.226;2023-06-14T12:14:02;25.40;47.80
360;DHT22;168;48.872;9.226;2023-06-14T12:16:32;25.50;47.50
360;DHT22;168;48.872;9.226;2023-06-14T12:19:12;25.60;47.90
360;DHT22;168;48.872;9.226;2023-06-14T12:21:40;25.60;48.10
360;DHT22;168;48.872;9.226;2023-06-14T12:24:08;25.70;47.40
360;DHT22;168;48.872;9.226;2023-06-14T12:26:39;25.50;47.70
360;DHT22;168;48.872;9.226;2023-06-14T12:29:07;25.40;48.00
360;DHT22;168;48.872;9.226;2023-06-14T12:31:35;25.40;47.50
360;DHT22;168;48.872;9.226;2023-06-14T12:34:03;25.50;48.30
360;DHT22;168;48.872;9.226;2023-06-14T12:36:33;25.70;48.00
360;DHT22;168;48.872;9.226;2023-06-14T12:39:03;25.90;48.90
360;DHT22;168;48.872;9.226;2023-06-14T12:41:32;26.30;48.00
360;DHT22;168;48.872;9.226;2023-06-14T12:44:00;26.40;47.60
360;DHT22;168;48.872;9.226;2023-06-14T12:46:30;26.50;47.30
360;DHT22;168;48.872;9.226;2023-06-14T12:48:58;26.30;47.50
360;DHT22;168;48.872;9.226;2023-06-14T12:51:26;26.00;48.30
360;DHT22;168;48.872;9.226;2023-06-14T12:53:54;25.90;48.10
360;DHT22;168;48.872;9.226;2023-06-14T12:56:22;25.90;47.60
360;DHT22;168;48.872;9.226;2023-06-14T12:58:49;25.50;48.70
360;DHT22;168;48.872;9.226;2023-06-14T13:01:17;25.50;48.40
360;DHT22;168;48.872;9.226;2023-06-14T13:03:46;25.70;48.50
360;DHT22;168;48.872;9.226;2023-06-14T13:06:13;25.80;48.00
360;DHT22;168;48.872;9.226;2023-06-14T13:08:41;25.70;48.50
360;DHT22;168;48.872;9.226;2023-06-14T13:11:10;25.70;47.60
360;DHT22;168;48.872;9.226;2023-06-14T13:13:38;25.50;48.40
360;DHT22;168;48.872;9.226;2023-06-14T13:16:05;25.40;48.40
360;DHT22;168;48.872;9.226;2023-06-14T13:18:33;25.50;48.10
360;DHT22;168;48.872;9.226;2023-06-14T13:21:01;25.60;48.80
360;DHT22;168;48.872;9.226;2023-06-14T13:23:28;26.00;47.40
360;DHT22;168;48.872;9.226;2023-06-14T13:25:56;26.40;46.90
360;DHT22;168;48.872;9.226;2023-06-14T13:28:26;26.50;47.20
360;DHT22;168;48.872;9.226;2023-06-14T13:30:53;26.70;46.50
360;DHT22;168;48.872;9.226;2023-06-14T13:33:22;26.60;46.70
360;DHT22;168;48.872;9.226;2023-06-14T13:35:51;26.50;46.20
360;DHT22;168;48.872;9.226;2023-06-14T13:38:20;26.60;46.80
360;DHT22;168;48.872;9.226;2023-06-14T13:40:48;26.70;46.80
360;DHT22;168;48.872;9.226;2023-06-14T13:43:15;26.50;47.10
360;DHT22;168;48.872;9.226;2023-06-14T13:45:46;26.40;48.20
360;DHT22;168;48.872;9.226;2023-06-14T13:48:14;26.30;48.50
360;DHT22;168;48.872;9.226;2023-06-14T13:50:42;26.10;48.30
360;DHT22;168;48.872;9.226;2023-06-14T13:53:10;26.20;49.10
360;DHT22;168;48.872;9.226;2023-06-14T13:55:38;26.70;47.60
360;DHT22;168;48.872;9.226;2023-06-14T13:58:05;27.00;47.40
360;DHT22;168;48.872;9.226;2023-06-14T14:00:32;27.30;47.00
360;DHT22;168;48.872;9.226;2023-06-14T14:03:01;27.60;45.80
360;DHT22;168;48.872;9.226;2023-06-14T14:05:30;27.80;46.10
360;DHT22;168;48.872;9.226;2023-06-14T14:07:58;27.90;45.30
360;DHT22;168;48.872;9.226;2023-06-14T14:10:26;27.90;45.20
360;DHT22;168;48.872;9.226;2023-06-14T14:12:53;27.80;45.20
360;DHT22;168;48.872;9.226;2023-06-14T14:15:21;27.70;45.40
360;DHT22;168;48.872;9.226;2023-06-14T14:17:49;27.60;44.50
360;DHT22;168;48.872;9.226;2023-06-14T14:20:18;27.70;45.40
360;DHT22;168;48.872;9.226;2023-06-14T14:22:47;28.10;45.00
360;DHT22;168;48.872;9.226;2023-06-14T14:25:14;28.20;44.60
360;DHT22;168;48.872;9.226;2023-06-14T14:27:42;28.10;45.20
360;DHT22;168;48.872;9.226;2023-06-14T14:30:10;28.10;45.90
360;DHT22;168;48.872;9.226;2023-06-14T14:32:37;28.10;46.10
360;DHT22;168;48.872;9.226;2023-06-14T14:35:06;28.30;45.80
360;DHT22;168;48.872;9.226;2023-06-14T14:37:36;28.40;44.90
360;DHT22;168;48.872;9.226;2023-06-14T14:40:04;28.60;44.90
360;DHT22;168;48.872;9.226;2023-06-14T14:42:32;28.60;44.90
360;DHT22;168;48.872;9.226;2023-06-14T14:44:59;28.70;44.90
360;DHT22;168;48.872;9.226;2023-06-14T14:47:27;28.80;44.20
360;DHT22;168;48.872;9.226;2023-06-14T14:49:54;29.00;43.10
360;DHT22;168;48.872;9.226;2023-06-14T14:52:22;29.30;42.70
360;DHT22;168;48.872;9.226;2023-06-14T14:54:52;29.70;42.40
360;DHT22;168;48.872;9.226;2023-06-14T14:57:20;30.10;42.30
360;DHT22;168;48.872;9.226;2023-06-14T14:59:47;30.20;42.20
360;DHT22;168;48.872;9.226;2023-06-14T15:02:15;30.00;43.30
360;DHT22;168;48.872;9.226;2023-06-14T15:04:44;29.80;42.90
360;DHT22;168;48.872;9.226;2023-06-14T15:07:12;29.50;43.50
360;DHT22;168;48.872;9.226;2023-06-14T15:09:39;29.10;44.20
360;DHT22;168;48.872;9.226;2023-06-14T15:12:10;28.90;43.90
360;DHT22;168;48.872;9.226;2023-06-14T15:14:37;28.70;44.40
360;DHT22;168;48.872;9.226;2023-06-14T15:17:05;28.60;44.70
360;DHT22;168;48.872;9.226;2023-06-14T15:19:32;28.50;44.50
360;DHT22;168;48.872;9.226;2023-06-14T15:22:02;28.50;44.50
360;DHT22;168;48.872;9.226;2023-06-14T15:24:29;28.50;45.00
360;DHT22;168;48.872;9.226;2023-06-14T15:26:58;28.40;44.60
360;DHT22;168;48.872;9.226;2023-06-14T15:29:28;28.00;44.60
360;DHT22;168;48.872;9.226;2023-06-14T15:31:55;27.80;43.90
360;DHT22;168;48.872;9.226;2023-06-14T15:34:27;27.60;44.30
360;DHT22;168;48.872;9.226;2023-06-14T15:37:08;27.70;45.20
360;DHT22;168;48.872;9.226;2023-06-14T15:39:55;28.10;44.40
360;DHT22;168;48.872;9.226;2023-06-14T15:42:25;28.70;43.70
360;DHT22;168;48.872;9.226;2023-06-14T15:45:31;29.40;43.20
360;DHT22;168;48.872;9.226;2023-06-14T15:48:12;30.20;41.90
360;DHT22;168;48.872;9.226;2023-06-14T15:50:47;30.40;41.60
360;DHT22;168;48.872;9.226;2023-06-14T15:53:29;30.20;42.40
360;DHT22;168;48.872;9.226;2023-06-14T15:55:57;30.10;41.70
360;DHT22;168;48.872;9.226;2023-06-14T15:58:40;30.00;41.40
360;DHT22;168;48.872;9.226;2023-06-14T16:01:10;30.00;41.30
360;DHT22;168;48.872;9.226;2023-06-14T16:03:38;30.10;41.80
360;DHT22;168;48.872;9.226;2023-06-14T16:06:05;30.20;41.70
360;DHT22;168;48.872;9.226;2023-06-14T16:08:33;30.00;42.00
360;DHT22;168;48.872;9.226;2023-06-14T16:11:01;29.90;42.20
360;DHT22;168;48.872;9.226;2023-06-14T16:13:29;29.70;42.60
360;DHT22;168;48.872;9.226;2023-06-14T16:16:01;29.60;42.50
360;DHT22;168;48.872;9.226;2023-06-14T16:18:30;29.50;43.00
360;DHT22;168;48.872;9.226;2023-06-14T16:20:57;29.40;43.10
360;DHT22;168;48.872;9.226;2023-06-14T16:23:30;29.10;43.70
360;DHT22;168;48.872;9.226;2023-06-14T16:25:58;29.10;43.50
360;DHT22;168;48.872;9.226;2023-06-14T16:28:25;29.20;43.90
360;DHT22;168;48.872;9.226;2023-06-14T16:30:53;29.40;43.70
360;DHT22;168;48.872;9.226;2023-06-14T16:33:20;29.70;43.30
360;DHT22;168;48.872;9.226;2023-06-14T16:35:50;30.10;43.00
360;DHT22;168;48.872;9.226;2023-06-14T16:38:17;30.50;42.10
360;DHT22;168;48.872;9.226;2023-06-14T16:40:49;30.60;43.00
360;DHT22;168;48.872;9.226;2023-06-14T16:43:18;30.60;43.20
360;DHT22;168;48.872;9.226;2023-06-14T16:45:45;30.60;42.60
360;DHT22;168;48.872;9.226;2023-06-14T16:48:13;30.50;42.70
360;DHT22;168;48.872;9.226;2023-06-14T16:50:41;30.40;42.50
360;DHT22;168;48.872;9.226;2023-06-14T16:53:10;30.40;43.20